sensor_id;sensor_type;location;lat;lon;timestamp;pressure;altitude;pressure_sealevel;temperature;humidity
57572;BME280;44459;43.522;24.470;2023-02-16T00:01:55;101687.22;;;-0.29;100.00
57572;BME280;44459;43.522;24.470;2023-02-16T00:04:25;101692.28;;;-0.31;100.00
57572;BME280;44459;43.522;24.470;2023-02-16T00:06:52;101692.06;;;-0.34;100.00
57572;BME280;44459;43.522;24.470;2023-02-16T00:09:18;101692.06;;;-0.34;100.00
57572;BME280;44459;43.522;24.470;2023-02-16T00:11:44;101686.66;;;-0.37;100.00
57572;BME280;44459;43.522;24.470;2023-02-16T00:14:30;101686.78;;;-0.35;100.00
57572;BME280;44459;43.522;24.470;2023-02-16T00:16:58;101686.44;;;-0.40;100.00
57572;BME280;44459;43.522;24.470;2023-02-16T00:19:26;101682.50;;;-0.46;100.00
57572;BME280;44459;43.522;24.470;2023-02-16T00:21:54;101691.06;;;-0.47;100.00
57572;BME280;44459;43.522;24.470;2023-02-16T00:24:21;101683.75;;;-0.53;100.00
57572;BME280;44459;43.522;24.470;2023-02-16T00:26:47;101687.69;;;-0.58;100.00
57572;BME280;44459;43.522;24.470;2023-02-16T00:29:26;101677.66;;;-0.65;100.00
57572;BME280;44459;43.522;24.470;2023-02-16T00:31:54;101688.16;;;-0.64;100.00
57572;BME280;44459;43.522;24.470;2023-02-16T00:37:08;101684.44;;;-0.67;100.00
57572;BME280;44459;43.522;24.470;2023-02-16T00:39:35;101683.41;;;-0.69;100.00
57572;BME280;44459;43.522;24.470;2023-02-16T00:42:25;101686.81;;;-0.70;100.00
57572;BME280;44459;43.522;24.470;2023-02-16T00:44:51;101688.38;;;-0.72;100.00
57572;BME280;44459;43.522;24.470;2023-02-16T00:49:53;101678.25;;;-0.81;100.00
57572;BME280;44459;43.522;24.470;2023-02-16T00:54:59;101680.81;;;-0.92;100.00
57572;BME280;44459;43.522;24.470;2023-02-16T00:57:26;101679.47;;;-0.99;100.00
57572;BME280;44459;43.522;24.470;2023-02-16T00:59:58;101678.31;;;-1.03;100.00
57572;BME280;44459;43.522;24.470;2023-02-16T01:02:24;101682.59;;;-1.03;100.00
57572;BME280;44459;43.522;24.470;2023-02-16T01:04:49;101673.91;;;-1.04;100.00
57572;BME280;44459;43.522;24.470;2023-02-16T01:07:17;101665.25;;;-1.04;100.00
57572;BME280;44459;43.522;24.470;2023-02-16T01:10:01;101673.91;;;-1.04;100.00
57572;BME280;44459;43.522;24.470;2023-02-16T01:12:45;101673.81;;;-1.05;100.00
57572;BME280;44459;43.522;24.470;2023-02-16T01:15:13;101672.78;;;-1.07;100.00
57572;BME280;44459;43.522;24.470;2023-02-16T01:17:39;101667.59;;;-1.07;100.00
57572;BME280;44459;43.522;24.470;2023-02-16T01:20:22;101665.91;;;-1.07;100.00
57572;BME280;44459;43.522;24.470;2023-02-16T01:22:48;101666.47;;;-1.11;100.00
57572;BME280;44459;43.522;24.470;2023-02-16T01:25:14;101649.94;;;-1.13;100.00
57572;BME280;44459;43.522;24.470;2023-02-16T01:27:40;101656.91;;;-1.12;100.00
57572;BME280;44459;43.522;24.470;2023-02-16T01:30:10;101657.69;;;-1.13;100.00
57572;BME280;44459;43.522;24.470;2023-02-16T01:32:36;101645.19;;;-1.18;100.00
57572;BME280;44459;43.522;24.470;2023-02-16T01:35:02;101650.13;;;-1.21;100.00
57572;BME280;44459;43.522;24.470;2023-02-16T01:37:27;101657.81;;;-1.23;100.00
57572;BME280;44459;43.522;24.470;2023-02-16T01:39:53;101658.72;;;-1.22;100.00
57572;BME280;44459;43.522;24.470;2023-02-16T01:45:21;101650.56;;;-1.27;100.00
57572;BME280;44459;43.522;24.470;2023-02-16T01:50:22;101658.81;;;-1.32;100.00
57572;BME280;44459;43.522;24.470;2023-02-16T01:53:14;101657.66;;;-1.36;100.00
57572;BME280;44459;43.522;24.470;2023-02-16T01:55:44;101657.31;;;-1.40;100.00
57572;BME280;44459;43.522;24.470;2023-02-16T01:58:23;101656.94;;;-1.45;100.00
57572;BME280;44459;43.522;24.470;2023-02-16T02:03:23;101655.94;;;-1.47;100.00
57572;BME280;44459;43.522;24.470;2023-02-16T02:06:32;101648.59;;;-1.53;100.00
57572;BME280;44459;43.522;24.470;2023-02-16T02:14:05;101647.44;;;-1.56;100.00
57572;BME280;44459;43.522;24.470;2023-02-16T02:16:33;101644.63;;;-1.59;100.00
57572;BME280;44459;43.522;24.470;2023-02-16T02:18:58;101638.31;;;-1.63;100.00
57572;BME280;44459;43.522;24.470;2023-02-16T02:27:26;101635.03;;;-1.72;100.00
57572;BME280;44459;43.522;24.470;2023-02-16T02:36:21;101637.25;;;-1.76;100.00
57572;BME280;44459;43.522;24.470;2023-02-16T02:38:52;101639.22;;;-1.74;100.00
57572;BME280;44459;43.522;24.470;2023-02-16T02:41:27;101631.31;;;-1.75;100.00
57572;BME280;44459;43.522;24.470;2023-02-16T02:44:20;101633.91;;;-1.75;100.00
57572;BME280;44459;43.522;24.470;2023-02-16T02:46:47;101628.94;;;-1.72;100.00
57572;BME280;44459;43.522;24.470;2023-02-16T02:49:13;101616.47;;;-1.78;100.00
57572;BME280;44459;43.522;24.470;2023-02-16T02:51:39;101617.47;;;-1.76;100.00
57572;BME280;44459;43.522;24.470;2023-02-16T02:54:29;101622.53;;;-1.77;100.00
57572;BME280;44459;43.522;24.470;2023-02-16T03:00:26;101634.75;;;-1.86;100.00
57572;BME280;44459;43.522;24.470;2023-02-16T03:05:50;101636.88;;;-1.92;100.00
57572;BME280;44459;43.522;24.470;2023-02-16T03:08:22;101642.81;;;-1.93;100.00
57572;BME280;44459;43.522;24.470;2023-02-16T03:10:59;101625.00;;;-2.00;100.00
57572;BME280;44459;43.522;24.470;2023-02-16T03:13:46;101620.38;;;-2.05;100.00
57572;BME280;44459;43.522;24.470;2023-02-16T03:16:19;101639.91;;;-1.98;100.00
57572;BME280;44459;43.522;24.470;2023-02-16T03:18:46;101632.00;;;-1.99;100.00
57572;BME280;44459;43.522;24.470;2023-02-16T03:21:32;101632.00;;;-1.99;100.00
57572;BME280;44459;43.522;24.470;2023-02-16T03:24:23;101630.72;;;-2.05;100.00
57572;BME280;44459;43.522;24.470;2023-02-16T03:27:11;101632.78;;;-2.00;100.00
57572;BME280;44459;43.522;24.470;2023-02-16T03:29:57;101633.44;;;-2.03;100.00
57572;BME280;44459;43.522;24.470;2023-02-16T03:32:24;101633.31;;;-2.05;100.00
57572;BME280;44459;43.522;24.470;2023-02-16T03:34:49;101635.78;;;-2.06;100.00
57572;BME280;44459;43.522;24.470;2023-02-16T03:37:15;101634.75;;;-2.08;100.00
57572;BME280;44459;43.522;24.470;2023-02-16T03:39:41;101644.56;;;-2.04;100.00
57572;BME280;44459;43.522;24.470;2023-02-16T03:42:25;101635.66;;;-2.08;100.00
57572;BME280;44459;43.522;24.470;2023-02-16T03:44:50;101648.06;;;-2.04;100.00
57572;BME280;44459;43.522;24.470;2023-02-16T03:47:16;101642.50;;;-2.08;100.00
57572;BME280;44459;43.522;24.470;2023-02-16T03:49:42;101641.06;;;-2.05;100.00
57572;BME280;44459;43.522;24.470;2023-02-16T03:52:07;101640.97;;;-2.06;100.00
57572;BME280;44459;43.522;24.470;2023-02-16T03:54:33;101635.56;;;-2.09;100.00
57572;BME280;44459;43.522;24.470;2023-02-16T03:56:58;101645.78;;;-2.11;100.00
57572;BME280;44459;43.522;24.470;2023-02-16T03:59:24;101646.44;;;-2.13;100.00
57572;BME280;44459;43.522;24.470;2023-02-16T04:01:49;101646.06;;;-2.18;100.00
57572;BME280;44459;43.522;24.470;2023-02-16T04:04:15;101646.88;;;-2.19;100.00
57572;BME280;44459;43.522;24.470;2023-02-16T04:06:40;101643.16;;;-2.22;100.00
57572;BME280;44459;43.522;24.470;2023-02-16T04:09:05;101640.56;;;-2.22;100.00
57572;BME280;44459;43.522;24.470;2023-02-16T04:11:31;101636.25;;;-2.22;100.00
57572;BME280;44459;43.522;24.470;2023-02-16T04:14:15;101643.00;;;-2.24;100.00
57572;BME280;44459;43.522;24.470;2023-02-16T04:16:40;101641.88;;;-2.27;100.00
57572;BME280;44459;43.522;24.470;2023-02-16T04:19:06;101641.50;;;-2.32;100.00
57572;BME280;44459;43.522;24.470;2023-02-16T04:21:32;101644.06;;;-2.32;100.00
57572;BME280;44459;43.522;24.470;2023-02-16T04:23:58;101643.44;;;-2.29;100.00
57572;BME280;44459;43.522;24.470;2023-02-16T04:26:23;101644.31;;;-2.29;100.00
57572;BME280;44459;43.522;24.470;2023-02-16T04:28:49;101640.59;;;-2.32;100.00
57572;BME280;44459;43.522;24.470;2023-02-16T04:31:15;101641.38;;;-2.33;100.00
57572;BME280;44459;43.522;24.470;2023-02-16T04:33:40;101646.03;;;-2.29;100.00
57572;BME280;44459;43.522;24.470;2023-02-16T04:36:06;101642.16;;;-2.34;100.00
57572;BME280;44459;43.522;24.470;2023-02-16T04:38:32;101642.03;;;-2.36;100.00
57572;BME280;44459;43.522;24.470;2023-02-16T04:40:57;101632.34;;;-2.38;100.00
57572;BME280;44459;43.522;24.470;2023-02-16T04:43:22;101642.59;;;-2.40;100.00
57572;BME280;44459;43.522;24.470;2023-02-16T04:45:48;101645.03;;;-2.41;100.00
57572;BME280;44459;43.522;24.470;2023-02-16T04:48:13;101637.03;;;-2.44;100.00
57572;BME280;44459;43.522;24.470;2023-02-16T04:50:39;101634.44;;;-2.44;100.00
57572;BME280;44459;43.522;24.470;2023-02-16T04:53:04;101635.88;;;-2.48;100.00
57572;BME280;44459;43.522;24.470;2023-02-16T04:55:30;101637.03;;;-2.44;100.00
57572;BME280;44459;43.522;24.470;2023-02-16T04:57:55;101640.63;;;-2.42;100.00
57572;BME280;44459;43.522;24.470;2023-02-16T05:00:21;101639.72;;;-2.43;100.00
57572;BME280;44459;43.522;24.470;2023-02-16T05:02:46;101634.94;;;-2.38;100.00
57572;BME280;44459;43.522;24.470;2023-02-16T05:05:12;101639.19;;;-2.39;100.00
57572;BME280;44459;43.522;24.470;2023-02-16T05:07:38;101641.69;;;-2.40;100.00
57572;BME280;44459;43.522;24.470;2023-02-16T05:10:04;101639.88;;;-2.41;100.00
57572;BME280;44459;43.522;24.470;2023-02-16T05:12:29;101639.72;;;-2.43;100.00
57572;BME280;44459;43.522;24.470;2023-02-16T05:15:13;101635.88;;;-2.48;100.00
57572;BME280;44459;43.522;24.470;2023-02-16T05:17:39;101640.63;;;-2.42;100.00
57572;BME280;44459;43.522;24.470;2023-02-16T05:20:05;101630.06;;;-2.45;100.00
57572;BME280;44459;43.522;24.470;2023-02-16T05:22:30;101630.19;;;-2.44;100.00
57572;BME280;44459;43.522;24.470;2023-02-16T05:25:00;101642.31;;;-2.43;100.00
57572;BME280;44459;43.522;24.470;2023-02-16T05:27:27;101644.91;;;-2.43;100.00
57572;BME280;44459;43.522;24.470;2023-02-16T05:29:53;101644.56;;;-2.47;100.00
57572;BME280;44459;43.522;24.470;2023-02-16T05:32:19;101649.19;;;-2.43;100.00
57572;BME280;44459;43.522;24.470;2023-02-16T05:34:45;101647.00;;;-2.49;100.00
57572;BME280;44459;43.522;24.470;2023-02-16T05:37:15;101650.06;;;-2.43;100.00
57572;BME280;44459;43.522;24.470;2023-02-16T05:39:41;101649.28;;;-2.42;100.00
57572;BME280;44459;43.522;24.470;2023-02-16T05:42:06;101653.03;;;-2.38;100.00
57572;BME280;44459;43.522;24.470;2023-02-16T05:44:32;101657.53;;;-2.36;100.00
57572;BME280;44459;43.522;24.470;2023-02-16T05:46:57;101660.50;;;-2.31;100.00
57572;BME280;44459;43.522;24.470;2023-02-16T05:49:23;101665.81;;;-2.30;100.00
57572;BME280;44459;43.522;24.470;2023-02-16T05:51:48;101660.19;;;-2.24;100.00
57572;BME280;44459;43.522;24.470;2023-02-16T05:54:14;101671.16;;;-2.17;100.00
57572;BME280;44459;43.522;24.470;2023-02-16T05:56:48;101655.09;;;-2.13;100.00
57572;BME280;44459;43.522;24.470;2023-02-16T05:59:15;101655.72;;;-2.05;100.00
57572;BME280;44459;43.522;24.470;2023-02-16T06:01:41;101660.47;;;-1.99;100.00
57572;BME280;44459;43.522;24.470;2023-02-16T06:04:08;101666.34;;;-1.90;100.00
57572;BME280;44459;43.522;24.470;2023-02-16T06:06:36;101669.44;;;-1.84;100.00
57572;BME280;44459;43.522;24.470;2023-02-16T06:09:03;101672.47;;;-1.78;100.00
57572;BME280;44459;43.522;24.470;2023-02-16T06:11:28;101670.59;;;-1.69;100.00
57572;BME280;44459;43.522;24.470;2023-02-16T06:14:00;101681.09;;;-1.56;100.00
57572;BME280;44459;43.522;24.470;2023-02-16T06:16:29;101687.78;;;-1.48;100.00
57572;BME280;44459;43.522;24.470;2023-02-16T06:18:55;101694.69;;;-1.37;100.00
57572;BME280;44459;43.522;24.470;2023-02-16T06:21:21;101689.75;;;-1.34;100.00
57572;BME280;44459;43.522;24.470;2023-02-16T06:23:47;101693.94;;;-1.24;100.00
57572;BME280;44459;43.522;24.470;2023-02-16T06:26:13;101697.34;;;-1.14;100.00
57572;BME280;44459;43.522;24.470;2023-02-16T06:28:38;101692.50;;;-1.09;100.00
57572;BME280;44459;43.522;24.470;2023-02-16T06:31:03;101695.78;;;-1.00;100.00
57572;BME280;44459;43.522;24.470;2023-02-16T06:33:29;101694.22;;;-0.86;100.00
57572;BME280;44459;43.522;24.470;2023-02-16T06:35:56;101686.00;;;-0.81;100.00
57572;BME280;44459;43.522;24.470;2023-02-16T06:38:21;101691.19;;;-0.69;100.00
57572;BME280;44459;43.522;24.470;2023-02-16T06:40:47;101691.66;;;-0.63;100.00
57572;BME280;44459;43.522;24.470;2023-02-16T06:43:12;101695.13;;;-0.51;100.00
57572;BME280;44459;43.522;24.470;2023-02-16T06:45:37;101688.81;;;-0.43;100.00
57572;BME280;44459;43.522;24.470;2023-02-16T06:48:03;101689.03;;;-0.40;100.00
57572;BME280;44459;43.522;24.470;2023-02-16T06:50:28;101705.13;;;-0.21;100.00
57572;BME280;44459;43.522;24.470;2023-02-16T06:52:54;101693.53;;;-0.14;100.00
57572;BME280;44459;43.522;24.470;2023-02-16T06:55:19;101688.00;;;-0.07;100.00
57572;BME280;44459;43.522;24.470;2023-02-16T06:57:44;101690.66;;;0.06;100.00
57572;BME280;44459;43.522;24.470;2023-02-16T07:00:10;101694.81;;;0.16;100.00
57572;BME280;44459;43.522;24.470;2023-02-16T07:02:36;101697.59;;;0.30;100.00
57572;BME280;44459;43.522;24.470;2023-02-16T07:05:02;101687.13;;;0.42;100.00
57572;BME280;44459;43.522;24.470;2023-02-16T07:07:27;101687.78;;;0.51;100.00
57572;BME280;44459;43.522;24.470;2023-02-16T07:09:53;101686.13;;;0.65;100.00
57572;BME280;44459;43.522;24.470;2023-02-16T07:12:18;101691.38;;;0.78;100.00
57572;BME280;44459;43.522;24.470;2023-02-16T07:14:44;101686.78;;;0.87;100.00
57572;BME280;44459;43.522;24.470;2023-02-16T07:17:09;101678.00;;;0.98;100.00
57572;BME280;44459;43.522;24.470;2023-02-16T07:19:35;101689.44;;;1.13;100.00
57572;BME280;44459;43.522;24.470;2023-02-16T07:22:01;101687.75;;;1.27;100.00
57572;BME280;44459;43.522;24.470;2023-02-16T07:24:26;101690.88;;;1.34;100.00
57572;BME280;44459;43.522;24.470;2023-02-16T07:26:52;101677.16;;;1.50;100.00
57572;BME280;44459;43.522;24.470;2023-02-16T07:29:18;101677.16;;;1.63;100.00
57572;BME280;44459;43.522;24.470;2023-02-16T07:31:43;101677.34;;;1.79;100.00
57572;BME280;44459;43.522;24.470;2023-02-16T07:34:09;101680.72;;;1.91;100.00
57572;BME280;44459;43.522;24.470;2023-02-16T07:36:34;101673.69;;;2.03;100.00
57572;BME280;44459;43.522;24.470;2023-02-16T07:38:59;101683.44;;;2.21;100.00
57572;BME280;44459;43.522;24.470;2023-02-16T07:41:25;101680.81;;;2.34;99.62
57572;BME280;44459;43.522;24.470;2023-02-16T07:43:50;101674.56;;;2.45;98.80
57572;BME280;44459;43.522;24.470;2023-02-16T07:46:16;101678.97;;;2.61;98.02
57572;BME280;44459;43.522;24.470;2023-02-16T07:48:41;101673.72;;;2.74;97.35
57572;BME280;44459;43.522;24.470;2023-02-16T07:51:07;101674.63;;;2.89;95.93
57572;BME280;44459;43.522;24.470;2023-02-16T07:53:32;101676.63;;;3.08;96.13
57572;BME280;44459;43.522;24.470;2023-02-16T07:55:58;101670.56;;;3.38;95.75
57572;BME280;44459;43.522;24.470;2023-02-16T07:58:23;101664.88;;;4.06;93.96
57572;BME280;44459;43.522;24.470;2023-02-16T08:01:09;101658.34;;;4.79;88.71
57572;BME280;44459;43.522;24.470;2023-02-16T08:03:35;101659.47;;;5.87;82.37
57572;BME280;44459;43.522;24.470;2023-02-16T08:06:01;101654.06;;;7.19;76.38
57572;BME280;44459;43.522;24.470;2023-02-16T08:08:27;101657.75;;;8.30;72.39
57572;BME280;44459;43.522;24.470;2023-02-16T08:10:52;101656.34;;;9.63;65.16
57572;BME280;44459;43.522;24.470;2023-02-16T08:13:18;101654.38;;;11.02;61.11
57572;BME280;44459;43.522;24.470;2023-02-16T08:15:44;101652.75;;;11.74;56.93
57572;BME280;44459;43.522;24.470;2023-02-16T08:18:09;101649.31;;;12.57;53.70
57572;BME280;44459;43.522;24.470;2023-02-16T08:20:35;101649.81;;;12.80;51.65
57572;BME280;44459;43.522;24.470;2023-02-16T08:23:01;101658.66;;;13.26;50.74
57572;BME280;44459;43.522;24.470;2023-02-16T08:25:26;101659.75;;;13.91;49.58
57572;BME280;44459;43.522;24.470;2023-02-16T08:27:51;101654.75;;;14.13;47.97
57572;BME280;44459;43.522;24.470;2023-02-16T08:30:17;101656.97;;;14.42;47.75
57572;BME280;44459;43.522;24.470;2023-02-16T08:32:42;101652.44;;;15.05;46.82
57572;BME280;44459;43.522;24.470;2023-02-16T08:35:08;101640.38;;;15.44;44.37
57572;BME280;44459;43.522;24.470;2023-02-16T08:37:37;101652.47;;;15.11;44.75
57572;BME280;44459;43.522;24.470;2023-02-16T08:40:04;101655.69;;;13.58;48.94
57572;BME280;44459;43.522;24.470;2023-02-16T08:42:32;101644.06;;;12.19;51.92
57572;BME280;44459;43.522;24.470;2023-02-16T08:44:57;101666.56;;;10.97;56.05
57572;BME280;44459;43.522;24.470;2023-02-16T08:47:23;101661.00;;;9.98;59.51
57572;BME280;44459;43.522;24.470;2023-02-16T08:49:48;101656.44;;;9.41;62.28
57572;BME280;44459;43.522;24.470;2023-02-16T08:52:14;101665.09;;;8.86;65.15
57572;BME280;44459;43.522;24.470;2023-02-16T08:54:39;101653.50;;;8.34;67.59
57572;BME280;44459;43.522;24.470;2023-02-16T08:57:05;101662.31;;;8.14;68.58
57572;BME280;44459;43.522;24.470;2023-02-16T08:59:31;101671.22;;;7.95;69.57
57572;BME280;44459;43.522;24.470;2023-02-16T09:01:59;101664.38;;;7.78;71.09
57572;BME280;44459;43.522;24.470;2023-02-16T09:04:25;101662.94;;;7.64;72.91
57572;BME280;44459;43.522;24.470;2023-02-16T09:06:51;101671.13;;;7.49;72.15
57572;BME280;44459;43.522;24.470;2023-02-16T09:09:18;101662.09;;;7.22;74.01
57572;BME280;44459;43.522;24.470;2023-02-16T09:11:43;101663.69;;;7.18;74.67
57572;BME280;44459;43.522;24.470;2023-02-16T09:14:10;101666.34;;;7.20;74.35
57572;BME280;44459;43.522;24.470;2023-02-16T09:16:36;101657.13;;;7.08;74.36
57572;BME280;44459;43.522;24.470;2023-02-16T09:19:04;101649.81;;;7.01;73.50
57572;BME280;44459;43.522;24.470;2023-02-16T09:21:30;101655.22;;;7.04;73.81
57572;BME280;44459;43.522;24.470;2023-02-16T09:24:01;101653.53;;;7.06;74.22
57572;BME280;44459;43.522;24.470;2023-02-16T09:26:30;101653.22;;;6.99;72.22
57572;BME280;44459;43.522;24.470;2023-02-16T09:28:56;101653.16;;;6.97;73.65
57572;BME280;44459;43.522;24.470;2023-02-16T09:31:24;101658.34;;;6.96;73.59
57572;BME280;44459;43.522;24.470;2023-02-16T09:33:53;101651.09;;;6.90;73.23
57572;BME280;44459;43.522;24.470;2023-02-16T09:36:20;101651.53;;;6.80;75.09
57572;BME280;44459;43.522;24.470;2023-02-16T09:38:45;101648.91;;;6.80;75.06
57572;BME280;44459;43.522;24.470;2023-02-16T09:41:34;101644.31;;;6.95;75.87
57572;BME280;44459;43.522;24.470;2023-02-16T09:45:15;101646.50;;;7.05;74.85
57572;BME280;44459;43.522;24.470;2023-02-16T09:49:49;101629.34;;;7.14;73.97
57572;BME280;44459;43.522;24.470;2023-02-16T09:52:30;101636.78;;;7.24;73.72
57572;BME280;44459;43.522;24.470;2023-02-16T09:55:00;101626.50;;;7.30;72.01
57572;BME280;44459;43.522;24.470;2023-02-16T10:08:38;101620.63;;;7.56;69.43
57572;BME280;44459;43.522;24.470;2023-02-16T10:11:43;101620.84;;;7.62;70.45
57572;BME280;44459;43.522;24.470;2023-02-16T10:20:04;101601.72;;;7.88;71.06
57572;BME280;44459;43.522;24.470;2023-02-16T10:22:41;101602.81;;;7.93;70.16
57572;BME280;44459;43.522;24.470;2023-02-16T10:25:42;101594.44;;;8.03;68.94
57572;BME280;44459;43.522;24.470;2023-02-16T10:30:41;101588.56;;;8.10;66.05
57572;BME280;44459;43.522;24.470;2023-02-16T10:33:16;101583.75;;;7.99;65.67
57572;BME280;44459;43.522;24.470;2023-02-16T10:35:47;101584.09;;;8.08;66.27
57572;BME280;44459;43.522;24.470;2023-02-16T10:43:42;101568.53;;;8.36;67.13
57572;BME280;44459;43.522;24.470;2023-02-16T10:46:24;101568.06;;;8.48;66.84
57572;BME280;44459;43.522;24.470;2023-02-16T10:48:54;101563.00;;;8.54;66.22
57572;BME280;44459;43.522;24.470;2023-02-16T10:51:22;101571.97;;;8.59;64.94
57572;BME280;44459;43.522;24.470;2023-02-16T10:53:55;101569.44;;;8.62;65.05
57572;BME280;44459;43.522;24.470;2023-02-16T10:59:23;101563.88;;;8.78;64.82
57572;BME280;44459;43.522;24.470;2023-02-16T11:01:54;101560.31;;;8.76;63.71
57572;BME280;44459;43.522;24.470;2023-02-16T11:04:39;101558.38;;;8.71;63.24
57572;BME280;44459;43.522;24.470;2023-02-16T11:07:14;101547.34;;;8.82;64.04
57572;BME280;44459;43.522;24.470;2023-02-16T11:09:41;101546.44;;;8.82;63.55
57572;BME280;44459;43.522;24.470;2023-02-16T11:12:14;101540.34;;;8.83;64.03
57572;BME280;44459;43.522;24.470;2023-02-16T11:14:47;101537.53;;;8.78;63.58
57572;BME280;44459;43.522;24.470;2023-02-16T11:17:14;101538.34;;;8.76;62.80
57572;BME280;44459;43.522;24.470;2023-02-16T11:19:53;101531.28;;;8.75;63.77
57572;BME280;44459;43.522;24.470;2023-02-16T11:22:30;101526.28;;;8.82;62.74
57572;BME280;44459;43.522;24.470;2023-02-16T11:24:56;101516.81;;;8.87;64.07
57572;BME280;44459;43.522;24.470;2023-02-16T11:27:48;101518.16;;;9.01;63.73
57572;BME280;44459;43.522;24.470;2023-02-16T11:30:17;101511.28;;;9.06;63.04
57572;BME280;44459;43.522;24.470;2023-02-16T11:32:47;101513.34;;;9.15;63.91
57572;BME280;44459;43.522;24.470;2023-02-16T11:35:13;101502.19;;;9.24;63.44
57572;BME280;44459;43.522;24.470;2023-02-16T11:37:40;101498.81;;;9.28;63.23
57572;BME280;44459;43.522;24.470;2023-02-16T11:40:22;101492.53;;;9.24;61.76
57572;BME280;44459;43.522;24.470;2023-02-16T11:42:54;101490.97;;;9.29;62.82
57572;BME280;44459;43.522;24.470;2023-02-16T11:45:25;101487.47;;;9.30;62.60
57572;BME280;44459;43.522;24.470;2023-02-16T11:47:58;101485.13;;;9.39;62.94
57572;BME280;44459;43.522;24.470;2023-02-16T11:50:33;101475.59;;;9.44;60.42
57572;BME280;44459;43.522;24.470;2023-02-16T11:55:35;101468.97;;;9.57;61.19
57572;BME280;44459;43.522;24.470;2023-02-16T11:58:19;101463.13;;;9.67;61.87
57572;BME280;44459;43.522;24.470;2023-02-16T12:03:59;101463.53;;;9.82;59.90
57572;BME280;44459;43.522;24.470;2023-02-16T12:06:39;101460.22;;;9.89;60.17
57572;BME280;44459;43.522;24.470;2023-02-16T12:09:37;101451.53;;;9.92;59.97
57572;BME280;44459;43.522;24.470;2023-02-16T12:15:26;101443.31;;;10.13;60.35
57572;BME280;44459;43.522;24.470;2023-02-16T12:21:15;101440.03;;;10.20;58.57
57572;BME280;44459;43.522;24.470;2023-02-16T12:23:55;101437.47;;;10.23;58.02
57572;BME280;44459;43.522;24.470;2023-02-16T12:26:47;101437.31;;;10.17;58.56
57572;BME280;44459;43.522;24.470;2023-02-16T12:37:27;101426.47;;;10.39;59.51
57572;BME280;44459;43.522;24.470;2023-02-16T12:46:09;101407.69;;;10.27;59.72
57572;BME280;44459;43.522;24.470;2023-02-16T12:48:49;101406.91;;;10.31;59.12
57572;BME280;44459;43.522;24.470;2023-02-16T12:51:21;101397.06;;;10.25;58.76
57572;BME280;44459;43.522;24.470;2023-02-16T12:54:00;101392.75;;;10.27;58.30
57572;BME280;44459;43.522;24.470;2023-02-16T12:56:41;101389.34;;;10.33;59.00
57572;BME280;44459;43.522;24.470;2023-02-16T13:02:20;101380.22;;;10.54;59.20
57572;BME280;44459;43.522;24.470;2023-02-16T13:05:07;101389.06;;;10.56;58.49
57572;BME280;44459;43.522;24.470;2023-02-16T13:07:37;101387.53;;;10.66;57.60
57572;BME280;44459;43.522;24.470;2023-02-16T13:12:42;101380.63;;;10.71;56.67
57572;BME280;44459;43.522;24.470;2023-02-16T13:15:20;101377.09;;;10.71;56.74
57572;BME280;44459;43.522;24.470;2023-02-16T13:17:57;101379.72;;;10.71;58.28
57572;BME280;44459;43.522;24.470;2023-02-16T13:20:25;101365.00;;;10.80;58.57
57572;BME280;44459;43.522;24.470;2023-02-16T13:23:21;101366.84;;;10.84;57.66
57572;BME280;44459;43.522;24.470;2023-02-16T13:26:16;101358.16;;;10.88;58.07
57572;BME280;44459;43.522;24.470;2023-02-16T13:35:00;101345.59;;;10.80;58.03
57572;BME280;44459;43.522;24.470;2023-02-16T13:45:30;101339.75;;;10.93;57.90
57572;BME280;44459;43.522;24.470;2023-02-16T13:47:57;101341.56;;;10.95;57.60
57572;BME280;44459;43.522;24.470;2023-02-16T13:50:27;101338.69;;;10.85;57.15
57572;BME280;44459;43.522;24.470;2023-02-16T13:52:56;101335.25;;;10.89;55.86
57572;BME280;44459;43.522;24.470;2023-02-16T13:55:31;101342.56;;;11.00;55.77
57572;BME280;44459;43.522;24.470;2023-02-16T14:08:25;101331.72;;;10.88;56.63
57572;BME280;44459;43.522;24.470;2023-02-16T14:10:56;101338.50;;;10.77;57.16
57572;BME280;44459;43.522;24.470;2023-02-16T14:16:22;101333.59;;;10.94;56.62
57572;BME280;44459;43.522;24.470;2023-02-16T14:19:04;101325.00;;;11.02;57.60
57572;BME280;44459;43.522;24.470;2023-02-16T14:21:42;101326.78;;;11.03;57.82
57572;BME280;44459;43.522;24.470;2023-02-16T14:24:31;101318.75;;;10.99;57.10
57572;BME280;44459;43.522;24.470;2023-02-16T14:27:02;101326.91;;;11.09;56.89
57572;BME280;44459;43.522;24.470;2023-02-16T14:30:00;101324.47;;;12.08;54.91
57572;BME280;44459;43.522;24.470;2023-02-16T14:32:31;101317.53;;;14.17;49.48
57572;BME280;44459;43.522;24.470;2023-02-16T14:37:40;101295.50;;;16.03;43.09
57572;BME280;44459;43.522;24.470;2023-02-16T14:40:18;101300.81;;;16.16;43.06
57572;BME280;44459;43.522;24.470;2023-02-16T14:42:50;101299.00;;;16.01;43.24
57572;BME280;44459;43.522;24.470;2023-02-16T14:48:34;101300.59;;;17.34;40.20
57572;BME280;44459;43.522;24.470;2023-02-16T14:53:26;101295.97;;;17.72;39.68
57572;BME280;44459;43.522;24.470;2023-02-16T14:56:11;101287.94;;;17.77;38.30
57572;BME280;44459;43.522;24.470;2023-02-16T14:58:54;101292.31;;;17.88;38.16
57572;BME280;44459;43.522;24.470;2023-02-16T15:01:22;101291.25;;;18.09;37.50
57572;BME280;44459;43.522;24.470;2023-02-16T15:03:50;101299.34;;;17.98;37.30
57572;BME280;44459;43.522;24.470;2023-02-16T15:08:58;101272.16;;;17.31;38.17
57572;BME280;44459;43.522;24.470;2023-02-16T15:11:30;101305.13;;;17.17;38.55
57572;BME280;44459;43.522;24.470;2023-02-16T15:14:09;101292.78;;;16.82;39.26
57572;BME280;44459;43.522;24.470;2023-02-16T15:16:39;101287.47;;;16.29;39.73